Time;durP1;ratioP1;P1;durP2;ratioP2;P2;SDS_P1;SDS_P2;PMS_P1;PMS_P2;Temp;Humidity;BMP_temperature;BMP_pressure;BME280_temperature;BME280_humidity;BME280_pressure;Samples;Min_cycle;Max_cycle;Signal;HPM_P1;HPM_P2
2023/10/03 00:00:57;;;;;;;14.77;8.52;;;;;;;20.02;68.79;101012.72;4994767;28;20036;-54
2023/10/03 00:03:23;;;;;;;14.93;8.60;;;;;;;20.02;68.86;101011.88;4994607;28;20117;-53
2023/10/03 00:05:51;;;;;;;17.33;9.32;;;;;;;20.02;68.67;101007.31;4994275;28;20026;-54
2023/10/03 00:08:17;;;;;;;18.48;9.27;;;;;;;20.01;68.27;100992.13;4993677;28;20113;-54
2023/10/03 00:10:43;;;;;;;19.20;8.68;;;;;;;20.02;68.76;100990.25;4994626;28;20038;-53
2023/10/03 00:13:11;;;;;;;15.73;8.93;;;;;;;20.01;68.18;100989.41;4996323;28;20037;-53
2023/10/03 00:15:43;;;;;;;13.95;7.75;;;;;;;20.01;68.09;100986.72;4997391;28;20042;-52
2023/10/03 00:18:09;;;;;;;15.25;8.25;;;;;;;20.03;68.10;100983.81;4997648;28;20488;-54
2023/10/03 00:20:34;;;;;;;16.27;8.63;;;;;;;20.01;68.54;100975.91;4996475;28;20101;-54
2023/10/03 00:23:00;;;;;;;18.73;8.77;;;;;;;20.02;68.01;100979.44;4996755;28;20070;-54
2023/10/03 00:25:25;;;;;;;19.83;9.43;;;;;;;20.02;68.45;100977.56;4996525;28;20085;-54
2023/10/03 00:27:52;;;;;;;18.38;9.18;;;;;;;20.02;68.74;100976.72;4996804;28;20030;-54
2023/10/03 00:30:23;;;;;;;15.63;8.90;;;;;;;20.02;68.74;100974.03;4996675;28;20425;-54
2023/10/03 00:32:49;;;;;;;;;;;;;;;20.10;68.52;100961.44;4996761;28;20388;-53
2023/10/03 00:35:16;;;;;;;17.42;8.52;;;;;;;20.02;68.22;100958.66;4997551;28;19922;-54
2023/10/03 00:37:46;;;;;;;17.75;9.10;;;;;;;20.02;68.50;100957.81;4997120;28;20030;-53
2023/10/03 00:42:51;;;;;;;18.10;9.40;;;;;;;20.00;68.61;100943.63;4997796;28;20042;-53
2023/10/03 00:45:21;;;;;;;18.40;9.30;;;;;;;20.00;68.27;100940.91;4997989;28;20113;-54
2023/10/03 00:47:50;;;;;;;15.80;8.50;;;;;;;19.99;68.34;100931.97;4996881;28;20121;-53
2023/10/03 00:50:19;;;;;;;14.77;8.18;;;;;;;19.99;68.22;100931.09;4996477;28;20034;-54
2023/10/03 00:52:46;;;;;;;17.38;8.70;;;;;;;19.99;68.16;100920.28;4996427;28;20117;-54
2023/10/03 00:55:13;;;;;;;14.38;7.95;;;;;;;19.98;68.24;100916.75;4993071;28;20038;-54
2023/10/03 00:57:39;;;;;;;14.20;8.35;;;;;;;19.99;68.16;100906.75;4996787;28;20420;-54
2023/10/03 01:00:15;;;;;;;17.13;9.07;;;;;;;19.99;68.23;100898.66;4996059;28;20038;-53
2023/10/03 01:02:50;;;;;;;14.50;8.23;;;;;;;19.99;68.46;100887.84;4993469;28;20046;-53
2023/10/03 01:05:16;;;;;;;17.02;9.07;;;;;;;19.99;68.15;100893.25;4995927;28;20026;-54
2023/10/03 01:07:44;;;;;;;16.58;8.95;;;;;;;19.97;68.35;100879.06;4996171;28;20033;-53
2023/10/03 01:10:17;;;;;;;14.80;8.55;;;;;;;19.98;68.05;100883.47;4996045;28;20034;-53
2023/10/03 01:12:44;;;;;;;14.77;8.15;;;;;;;19.97;67.90;100862.84;4995964;28;20040;-54
2023/10/03 01:15:19;;;;;;;18.55;8.90;;;;;;;19.96;67.99;100867.41;4995668;28;20038;-54
2023/10/03 01:17:49;;;;;;;17.73;9.07;;;;;;;19.98;68.23;100867.25;4997583;28;20085;-53
2023/10/03 01:20:21;;;;;;;16.75;9.02;;;;;;;19.96;68.35;100856.59;4996608;28;20042;-54
2023/10/03 01:22:49;;;;;;;15.85;8.52;;;;;;;19.98;67.97;100859.16;4994441;28;20041;-53
2023/10/03 01:25:16;;;;;;;18.95;9.60;;;;;;;19.96;68.09;100848.47;4996010;28;20034;-54
2023/10/03 01:27:41;;;;;;;14.70;8.77;;;;;;;19.96;67.94;100851.19;4996303;28;20092;-54
2023/10/03 01:30:08;;;;;;;16.58;9.00;;;;;;;19.95;68.01;100849.47;4996092;28;20031;-53
2023/10/03 01:32:38;;;;;;;17.50;9.48;;;;;;;19.96;67.99;100847.66;4995972;28;20358;-53
2023/10/03 01:35:09;;;;;;;18.13;9.15;;;;;;;19.96;68.45;100847.66;4995889;28;20539;-54
2023/10/03 01:37:35;;;;;;;;;;;;;;;20.05;67.73;100846.69;4992923;28;20100;-53
2023/10/03 01:40:00;;;;;;;17.77;9.20;;;;;;;19.97;67.67;100857.44;4995302;28;20388;-53
2023/10/03 01:42:25;;;;;;;18.95;9.73;;;;;;;19.97;68.17;100838.50;4995122;28;20317;-54
2023/10/03 01:44:51;;;;;;;16.70;8.68;;;;;;;19.95;68.13;100822.44;4995092;28;20030;-53
2023/10/03 01:47:16;;;;;;;16.70;9.32;;;;;;;19.95;67.69;100819.75;4994950;28;20033;-54
2023/10/03 01:49:42;;;;;;;16.75;8.90;;;;;;;19.94;67.89;100818.06;4995396;28;20076;-54
2023/10/03 01:52:07;;;;;;;15.93;9.48;;;;;;;19.94;68.24;100826.19;4995003;28;20031;-54
2023/10/03 01:54:34;;;;;;;17.13;8.75;;;;;;;19.95;68.12;100824.31;4994841;28;20030;-54
2023/10/03 01:57:00;;;;;;;15.30;8.25;;;;;;;19.95;67.62;100827.84;4995561;28;20528;-54
2023/10/03 01:59:26;;;;;;;16.95;8.65;;;;;;;19.96;67.87;100823.31;4996370;28;20172;-53
2023/10/03 02:01:51;;;;;;;18.25;9.48;;;;;;;19.96;68.35;100829.56;4996193;28;20117;-53
2023/10/03 02:04:16;;;;;;;18.60;9.25;;;;;;;19.97;68.17;100822.31;4996120;28;20108;-54
2023/10/03 02:06:42;;;;;;;18.58;9.23;;;;;;;19.96;68.30;100826.03;4996520;28;20038;-53
2023/10/03 02:09:08;;;;;;;19.27;9.75;;;;;;;19.96;68.81;100815.22;4995126;28;20049;-53
2023/10/03 02:11:34;;;;;;;18.40;8.93;;;;;;;19.95;68.38;100817.03;4995132;28;20439;-52
2023/10/03 02:14:03;;;;;;;17.25;9.18;;;;;;;19.95;68.56;100817.03;4994818;28;20045;-54
2023/10/03 02:16:28;;;;;;;22.40;10.23;;;;;;;19.95;68.38;100808.09;4995009;28;20431;-54
2023/10/03 02:18:55;;;;;;;18.02;9.63;;;;;;;19.95;68.31;100808.09;4991007;28;20060;-53
2023/10/03 02:21:20;;;;;;;18.02;9.00;;;;;;;19.95;68.35;100805.41;4994786;28;20034;-53
2023/10/03 02:23:47;;;;;;;17.30;8.82;;;;;;;19.95;68.30;100800.00;4994441;28;20030;-54
2023/10/03 02:26:16;;;;;;;15.90;8.77;;;;;;;19.95;68.28;100783.78;4994671;28;20065;-54
2023/10/03 02:28:42;;;;;;;15.63;9.00;;;;;;;19.94;68.54;100771.28;4991178;28;20117;-54
2023/10/03 02:31:07;;;;;;;17.98;9.68;;;;;;;19.94;68.60;100782.09;4994297;28;20392;-54
2023/10/03 02:33:38;;;;;;;17.25;9.30;;;;;;;19.95;68.27;100805.41;4994114;28;20035;-53
2023/10/03 02:36:05;;;;;;;18.02;9.38;;;;;;;19.94;68.63;100793.75;4993971;28;20436;-54
2023/10/03 02:38:30;;;;;;;17.05;9.60;;;;;;;19.94;68.52;100801.84;4994908;28;20042;-54
2023/10/03 02:41:00;;;;;;;18.92;9.15;;;;;;;19.95;68.26;100800.84;4994829;28;20046;-53
2023/10/03 02:43:30;;;;;;;20.08;10.15;;;;;;;19.94;68.46;100803.72;4994839;28;20500;-53
2023/10/03 02:45:55;;;;;;;15.98;9.00;;;;;;;19.94;68.17;100793.75;4994660;28;20050;-54
2023/10/03 02:48:21;;;;;;;20.75;9.95;;;;;;;19.94;68.24;100799.16;4995243;28;20116;-54
2023/10/03 02:50:48;;;;;;;16.98;9.18;;;;;;;19.93;68.23;100808.25;4995696;28;20030;-53
2023/10/03 02:53:20;;;;;;;16.33;8.50;;;;;;;19.94;68.41;100809.13;4995671;28;20057;-53
2023/10/03 02:55:54;;;;;;;19.30;9.88;;;;;;;19.92;67.86;100802.00;4994825;28;20033;-54
2023/10/03 02:58:20;;;;;;;17.73;9.70;;;;;;;19.94;68.64;100814.53;4994355;28;20038;-53
2023/10/03 03:00:49;;;;;;;16.00;8.60;;;;;;;19.94;68.15;100811.84;4990995;28;20030;-53
2023/10/03 03:03:15;;;;;;;21.02;9.43;;;;;;;19.92;68.27;100807.41;4994334;28;20071;-54
2023/10/03 03:05:42;;;;;;;17.52;9.00;;;;;;;19.94;68.40;100806.44;4994152;28;20115;-54
2023/10/03 03:10:49;;;;;;;17.05;9.45;;;;;;;19.94;67.84;100809.13;4993802;28;20503;-54
2023/10/03 03:13:15;;;;;;;17.73;8.70;;;;;;;19.92;68.23;100801.19;4992708;28;20462;-53
2023/10/03 03:15:51;;;;;;;16.95;9.15;;;;;;;19.92;68.22;100812.81;4993197;28;20044;-54
2023/10/03 03:18:19;;;;;;;18.92;9.70;;;;;;;19.92;68.28;100807.41;4993945;28;20116;-53
2023/10/03 03:20:45;;;;;;;18.40;9.38;;;;;;;19.92;67.95;100810.13;4994708;28;20444;-53
2023/10/03 03:23:13;;;;;;;17.40;9.32;;;;;;;19.92;67.95;100806.56;4995130;28;20034;-54
2023/10/03 03:25:42;;;;;;;18.20;8.82;;;;;;;19.94;67.97;100809.13;4994686;28;20408;-54
2023/10/03 03:28:13;;;;;;;16.77;9.23;;;;;;;19.92;68.16;100799.31;4993162;28;20033;-53
2023/10/03 03:30:55;;;;;;;19.27;9.13;;;;;;;19.92;67.83;100796.59;4994029;28;20685;-54
2023/10/03 03:33:21;;;;;;;16.38;8.38;;;;;;;19.92;68.02;100795.78;4990661;28;20038;-54
2023/10/03 03:35:47;;;;;;;17.35;8.63;;;;;;;19.91;68.13;100804.88;4994162;28;20358;-53
2023/10/03 03:38:20;;;;;;;16.23;8.45;;;;;;;19.92;68.10;100799.31;4993803;28;20037;-54
2023/10/03 03:40:46;;;;;;;15.88;9.13;;;;;;;19.91;68.04;100803.03;4990571;28;20034;-53
2023/10/03 03:43:17;;;;;;;17.92;8.95;;;;;;;19.91;67.97;100794.94;4993337;28;20113;-52
2023/10/03 03:45:44;;;;;;;16.45;8.38;;;;;;;19.91;68.15;100800.34;4994878;28;20023;-53
2023/10/03 03:48:09;;;;;;;14.05;8.02;;;;;;;19.91;68.03;100800.34;4997472;28;20042;-53
2023/10/03 03:50:36;;;;;;;14.77;8.60;;;;;;;19.91;68.15;100805.75;4997321;28;20026;-53
2023/10/03 03:53:06;;;;;;;19.73;9.65;;;;;;;19.91;68.20;100804.88;4996910;28;20034;-54
2023/10/03 03:55:34;;;;;;;19.70;9.77;;;;;;;19.92;68.24;100811.97;4996998;28;20018;-54
2023/10/03 03:58:04;;;;;;;15.70;9.07;;;;;;;19.91;67.77;100804.88;4995900;28;20041;-54
2023/10/03 04:00:31;;;;;;;17.83;8.07;;;;;;;19.91;68.22;100821.94;4999098;28;20030;-53
2023/10/03 04:03:00;;;;;;;14.88;8.43;;;;;;;19.90;68.03;100814.84;4998870;28;20453;-53
2023/10/03 04:05:29;;;;;;;16.25;8.57;;;;;;;19.91;68.02;100821.94;4997667;28;20042;-53
2023/10/03 04:07:54;;;;;;;14.73;8.10;;;;;;;19.91;67.75;100818.38;4997942;28;20475;-53
2023/10/03 04:10:21;;;;;;;17.20;8.65;;;;;;;19.92;68.26;100828.19;4998197;28;20105;-54
2023/10/03 04:12:49;;;;;;;16.70;9.40;;;;;;;19.91;68.27;100829.19;4997699;28;20022;-53
2023/10/03 04:15:15;;;;;;;14.63;8.50;;;;;;;19.90;67.95;100839.16;4997084;28;20041;-53
2023/10/03 04:17:44;;;;;;;17.50;9.00;;;;;;;19.90;67.85;100833.75;4997350;28;20508;-54
2023/10/03 04:20:23;;;;;;;17.55;8.32;;;;;;;19.91;68.05;100840.00;4996600;28;20059;-54
2023/10/03 04:22:50;;;;;;;17.38;8.15;;;;;;;19.91;67.59;100840.88;4995369;28;20038;-53
2023/10/03 04:25:22;;;;;;;14.32;7.93;;;;;;;19.90;67.73;100841.88;4997011;28;20041;-53
2023/10/03 04:27:52;;;;;;;14.93;7.70;;;;;;;19.91;67.76;100848.09;4997051;28;20030;-53
2023/10/03 04:30:19;;;;;;;14.18;8.05;;;;;;;19.91;67.71;100865.19;4997044;28;20030;-53
2023/10/03 04:32:47;;;;;;;16.17;8.43;;;;;;;19.90;68.09;100860.78;4996564;28;20034;-53
2023/10/03 04:35:18;;;;;;;15.60;8.27;;;;;;;19.90;68.05;100858.06;4996415;28;20515;-53
2023/10/03 04:37:46;;;;;;;15.82;8.45;;;;;;;19.91;67.89;100853.50;4995183;28;20038;-53
2023/10/03 04:40:22;;;;;;;16.40;8.73;;;;;;;19.90;68.17;100858.06;4996501;28;20044;-53
2023/10/03 04:42:52;;;;;;;16.50;8.32;;;;;;;19.92;67.59;100863.31;4997511;28;20030;-54
2023/10/03 04:45:20;;;;;;;14.07;7.50;;;;;;;19.90;67.58;100874.28;4997469;28;20041;-53
2023/10/03 04:47:47;;;;;;;15.30;8.40;;;;;;;19.91;67.90;100877.84;4993652;28;20040;-52
2023/10/03 04:50:24;;;;;;;15.48;8.05;;;;;;;19.91;67.64;100877.84;4999163;28;20034;-53
2023/10/03 04:52:50;;;;;;;14.60;8.23;;;;;;;19.91;67.94;100881.41;4997109;28;20097;-52
2023/10/03 04:55:16;;;;;;;16.63;8.93;;;;;;;19.91;67.74;100892.22;4996419;28;20038;-53
2023/10/03 04:57:46;;;;;;;12.68;7.28;;;;;;;19.91;67.56;100891.34;4994927;28;20073;-53
2023/10/03 05:00:15;;;;;;;16.02;8.57;;;;;;;19.89;68.06;100891.50;4996231;28;20069;-53
2023/10/03 05:02:46;;;;;;;17.27;8.63;;;;;;;19.90;68.06;100882.41;4996260;28;20092;-53
2023/10/03 05:05:33;;;;;;;13.43;8.05;;;;;;;19.91;68.02;100876.00;4996268;28;20060;-53
2023/10/03 05:07:59;;;;;;;12.85;7.10;;;;;;;19.90;67.98;100868.88;4992794;28;20053;-53
2023/10/03 05:10:30;;;;;;;15.95;7.82;;;;;;;19.90;67.62;100877.00;4996672;28;20030;-55
2023/10/03 05:12:57;;;;;;;;;;;;;;;19.99;67.46;100894.13;4993382;28;20427;-53
2023/10/03 05:15:26;;;;;;;13.80;7.18;;;;;;;19.92;67.89;100912.81;4994640;28;19929;-53
2023/10/03 05:17:52;;;;;;;19.42;7.70;;;;;;;19.91;67.89;100915.66;4996078;28;20046;-53
2023/10/03 05:20:18;;;;;;;12.32;7.10;;;;;;;19.91;67.66;100921.06;4996423;28;20512;-53
2023/10/03 05:22:46;;;;;;;13.80;7.40;;;;;;;19.90;67.92;100933.75;4996480;28;20125;-53
2023/10/03 05:25:17;;;;;;;13.73;7.18;;;;;;;19.89;67.40;100926.63;4996400;28;20036;-53
2023/10/03 05:27:44;;;;;;;14.27;7.77;;;;;;;19.90;67.95;100928.34;4996390;28;20061;-53
2023/10/03 05:30:11;;;;;;;13.10;7.32;;;;;;;19.90;67.62;100911.28;5011089;28;20050;-52
2023/10/03 05:32:37;;;;;;;13.20;7.40;;;;;;;19.90;67.90;100901.31;4995858;28;20042;-53
2023/10/03 05:35:04;;;;;;;12.50;7.45;;;;;;;19.92;67.42;100903.88;4996062;28;20129;-52
2023/10/03 05:37:33;;;;;;;12.65;7.65;;;;;;;19.91;67.79;100913.84;4992128;28;20436;-52
2023/10/03 05:39:58;;;;;;;13.07;6.85;;;;;;;19.91;68.01;100908.44;4995498;28;20485;-53
2023/10/03 05:42:24;;;;;;;12.45;6.45;;;;;;;19.92;68.08;100909.28;4995458;28;20054;-53
2023/10/03 05:44:51;;;;;;;12.52;6.80;;;;;;;19.91;68.04;100913.84;4996328;28;20046;-53
2023/10/03 05:47:16;;;;;;;15.40;7.85;;;;;;;19.90;68.27;100922.09;4994195;28;20461;-50
2023/10/03 05:49:43;;;;;;;17.35;7.60;;;;;;;19.92;68.02;100920.06;4995232;28;20045;-53
2023/10/03 05:52:08;;;;;;;13.98;6.95;;;;;;;19.90;67.85;100920.22;4995286;28;20087;-53
2023/10/03 05:54:34;;;;;;;13.45;7.00;;;;;;;19.90;67.84;100914.81;4993959;28;20049;-53
2023/10/03 05:56:59;;;;;;;9.60;5.88;;;;;;;19.91;67.67;100921.94;4993531;28;20121;-53
2023/10/03 05:59:27;;;;;;;12.75;6.93;;;;;;;19.91;67.72;100916.53;4994198;28;20054;-53
2023/10/03 06:01:53;;;;;;;11.48;7.03;;;;;;;19.91;67.85;100912.97;4994470;28;20033;-52
2023/10/03 06:04:18;;;;;;;14.10;7.07;;;;;;;19.90;68.09;100922.94;4993743;28;20038;-53
2023/10/03 06:06:44;;;;;;;12.10;6.45;;;;;;;19.92;67.76;100923.63;4993654;28;20096;-53
2023/10/03 06:09:12;;;;;;;11.70;6.65;;;;;;;19.93;68.07;100919.06;4993720;28;20085;-53
2023/10/03 06:11:38;;;;;;;13.30;6.53;;;;;;;19.92;68.72;100942.53;4992484;28;20065;-53
2023/10/03 06:14:04;;;;;;;11.85;6.47;;;;;;;19.93;68.66;100935.28;4991767;28;20038;-53
2023/10/03 06:16:30;;;;;;;14.82;7.20;;;;;;;19.92;68.49;100933.59;4992855;28;20034;-53
2023/10/03 06:18:59;;;;;;;13.73;6.25;;;;;;;19.93;68.59;100929.88;4993630;28;20045;-53
2023/10/03 06:21:24;;;;;;;14.88;6.78;;;;;;;19.94;68.90;100938.84;4991852;28;20518;-52
2023/10/03 06:23:50;;;;;;;14.60;7.03;;;;;;;19.93;68.67;100954.19;4994858;28;20034;-53
2023/10/03 06:26:20;;;;;;;15.30;6.43;;;;;;;19.92;68.30;100947.94;4994668;28;20124;-53
2023/10/03 06:28:48;;;;;;;11.90;6.38;;;;;;;19.94;68.44;100949.66;4991756;28;20030;-53
2023/10/03 06:31:13;;;;;;;11.55;6.00;;;;;;;19.94;68.14;100971.28;4992023;28;20550;-52
2023/10/03 06:33:39;;;;;;;11.68;6.22;;;;;;;19.94;68.22;100968.56;4992208;28;20034;-53
2023/10/03 06:36:06;;;;;;;11.02;6.07;;;;;;;19.94;68.01;100976.69;4991663;28;20157;-53
2023/10/03 06:38:36;;;;;;;13.75;7.30;;;;;;;19.94;68.25;100965.88;4992251;28;20034;-53
2023/10/03 06:41:03;;;;;;;13.82;6.93;;;;;;;19.94;68.61;100984.78;4990469;28;20476;-50
2023/10/03 06:43:28;;;;;;;10.75;6.18;;;;;;;19.95;68.29;100984.59;4991390;28;20129;-53
2023/10/03 06:45:54;;;;;;;12.15;6.40;;;;;;;19.95;68.47;100983.75;4993349;28;20523;-52
2023/10/03 06:48:21;;;;;;;12.30;6.35;;;;;;;19.95;68.70;100989.16;4991872;28;20115;-53
2023/10/03 06:50:48;;;;;;;12.70;5.68;;;;;;;19.95;69.01;100991.88;4991438;28;20193;-53
2023/10/03 06:53:13;;;;;;;14.57;6.70;;;;;;;19.94;68.95;100996.44;4990390;28;20502;-51
2023/10/03 06:55:39;;;;;;;8.80;5.68;;;;;;;19.94;68.70;100999.13;4992547;28;20030;-52
2023/10/03 06:58:05;;;;;;;13.13;6.07;;;;;;;19.95;68.35;101002.69;4990116;28;20030;-53
2023/10/03 07:00:32;;;;;;;12.93;5.70;;;;;;;19.94;68.64;101015.34;4993829;28;20400;-53
2023/10/03 07:02:58;;;;;;;14.80;6.85;;;;;;;19.94;68.80;101026.16;4993841;28;20034;-52
2023/10/03 07:05:24;;;;;;;11.65;6.00;;;;;;;19.98;68.92;101034.81;4994134;28;20095;-55
2023/10/03 07:07:49;;;;;;;11.40;5.47;;;;;;;19.98;68.42;101032.13;4993612;28;20480;-55
2023/10/03 07:10:15;;;;;;;13.90;5.50;;;;;;;19.98;68.18;101026.72;4993837;28;20038;-55
2023/10/03 07:12:40;;;;;;;12.02;5.53;;;;;;;19.97;68.22;101006.06;4993315;28;20472;-55
2023/10/03 07:15:08;;;;;;;15.57;6.07;;;;;;;19.99;68.28;101028.38;4991996;28;20083;-54
2023/10/03 07:17:35;;;;;;;13.23;6.05;;;;;;;19.98;69.06;101010.50;4990425;28;20038;-54
2023/10/03 07:20:05;;;;;;;14.05;6.43;;;;;;;19.99;68.94;101018.44;4992596;28;20054;-54
2023/10/03 07:22:31;;;;;;;17.10;5.65;;;;;;;20.00;69.14;101019.28;4993472;28;20088;-54
2023/10/03 07:24:57;;;;;;;11.35;5.57;;;;;;;20.00;69.36;101013.88;4993666;28;20038;-54
2023/10/03 07:27:22;;;;;;;17.33;6.38;;;;;;;20.00;69.08;101019.28;4994270;28;20074;-54
2023/10/03 07:29:48;;;;;;;12.70;5.95;;;;;;;20.01;69.54;101029.06;4994957;28;20204;-54
2023/10/03 07:32:14;;;;;;;13.25;6.13;;;;;;;20.00;69.38;101025.53;4995163;28;20368;-54
2023/10/03 07:34:43;;;;;;;14.80;5.55;;;;;;;20.00;69.34;101024.69;4994057;28;20034;-53
2023/10/03 07:37:09;;;;;;;13.13;5.80;;;;;;;20.00;69.39;101024.69;4994039;28;20029;-54
2023/10/03 07:39:34;;;;;;;19.65;6.10;;;;;;;19.99;69.68;101031.09;4993836;28;20485;-54
2023/10/03 07:42:01;;;;;;;16.58;7.05;;;;;;;20.00;69.49;101035.50;4993565;28;20026;-54
2023/10/03 07:44:27;;;;;;;26.35;7.88;;;;;;;20.00;69.81;101024.69;4994120;28;20096;-54
2023/10/03 07:46:52;;;;;;;40.65;7.38;;;;;;;19.99;69.38;101031.09;4993581;28;20042;-54
2023/10/03 07:49:17;;;;;;;43.50;7.70;;;;;;;19.99;69.63;101047.31;4993368;28;20042;-54
2023/10/03 07:51:43;;;;;;;44.85;9.68;;;;;;;19.99;69.58;101063.53;4993479;28;20045;-54
2023/10/03 07:54:08;;;;;;;44.20;9.25;;;;;;;20.00;69.60;101065.22;4994390;28;20484;-53
2023/10/03 07:56:34;;;;;;;54.90;7.80;;;;;;;19.99;69.26;101083.31;4994170;28;20118;-54
2023/10/03 07:59:04;;;;;;;54.47;9.65;;;;;;;19.99;69.12;101074.34;4994590;28;20034;-54
2023/10/03 08:01:30;;;;;;;47.83;8.70;;;;;;;19.99;69.31;101068.94;4994756;28;20077;-54
2023/10/03 08:03:57;;;;;;;39.17;8.57;;;;;;;19.97;69.48;101068.22;4993752;28;20030;-54
2023/10/03 08:06:27;;;;;;;51.80;8.73;;;;;;;19.98;68.96;101078.06;4993603;28;20031;-54
2023/10/03 08:08:59;;;;;;;62.60;9.15;;;;;;;19.96;69.08;101086.31;4993333;28;20072;-54
2023/10/03 08:11:31;;;;;;;42.17;9.57;;;;;;;19.97;69.42;101100.66;4991387;28;20037;-54
2023/10/03 08:14:23;;;;;;;28.70;8.10;;;;;;;19.99;69.15;101120.28;4995373;28;20026;-53
2023/10/03 08:16:49;;;;;;;41.42;7.82;;;;;;;19.99;69.12;101123.84;4991371;28;20361;-54
2023/10/03 08:19:21;;;;;;;43.55;8.90;;;;;;;19.99;69.35;101109.47;4993330;28;20033;-54
2023/10/03 08:21:50;;;;;;;111.32;16.20;;;;;;;20.00;70.22;101119.28;4994423;28;20043;-54
2023/10/03 08:24:19;;;;;;;138.88;18.08;;;;;;;20.00;70.17;101132.81;4994484;28;20026;-54
2023/10/03 08:26:46;;;;;;;68.43;12.13;;;;;;;19.99;70.28;101136.50;4994209;28;20034;-54
2023/10/03 08:29:21;;;;;;;42.22;8.38;;;;;;;19.99;69.68;101131.09;4994509;28;20390;-54
2023/10/03 08:31:49;;;;;;;90.47;13.25;;;;;;;19.98;69.85;101135.66;4996086;28;20026;-54
2023/10/03 08:34:19;;;;;;;91.72;11.90;;;;;;;19.98;69.98;101142.91;4994304;28;20038;-54
2023/10/03 08:36:45;;;;;;;79.78;12.98;;;;;;;19.99;69.55;101158.13;4997890;28;20037;-54
2023/10/03 08:39:14;;;;;;;87.47;12.40;;;;;;;19.99;69.70;101142.78;4997801;28;20038;-54
2023/10/03 08:41:48;;;;;;;103.60;14.48;;;;;;;20.00;69.57;101155.28;4996159;28;20030;-54
2023/10/03 08:44:14;;;;;;;81.88;14.95;;;;;;;20.01;70.23;101159.69;4993512;28;20480;-54
2023/10/03 08:47:00;;;;;;;58.05;11.15;;;;;;;20.05;69.83;101162.94;4996244;28;20058;-54
2023/10/03 08:49:38;;;;;;;46.50;10.25;;;;;;;20.04;70.13;101177.44;4995703;28;20050;-54
2023/10/03 08:52:05;;;;;;;47.95;11.27;;;;;;;20.04;70.31;101188.25;4995458;28;20519;-54
2023/10/03 08:54:37;;;;;;;47.58;8.95;;;;;;;20.04;69.99;101193.66;4998399;28;20388;-54
2023/10/03 08:57:04;;;;;;;47.75;10.82;;;;;;;20.04;70.10;101199.06;4994690;28;20454;-54
2023/10/03 08:59:33;;;;;;;53.78;9.60;;;;;;;20.03;70.18;101209.03;4998357;28;20436;-54
2023/10/03 09:02:05;;;;;;;32.90;7.35;;;;;;;20.02;69.84;101222.69;4996843;28;20091;-54
2023/10/03 09:04:38;;;;;;;34.33;7.40;;;;;;;20.00;69.94;101230.94;4994549;28;20061;-54
2023/10/03 09:07:09;;;;;;;19.52;5.15;;;;;;;20.00;69.76;101230.09;4997791;28;20065;-54
2023/10/03 09:09:41;;;;;;;21.52;5.05;;;;;;;19.98;69.39;101227.56;4996425;28;20113;-54
2023/10/03 09:12:08;;;;;;;17.55;4.32;;;;;;;19.98;68.94;101226.72;4994240;28;20512;-54
2023/10/03 09:14:36;;;;;;;16.92;4.50;;;;;;;19.97;69.53;101235.81;4997809;28;20026;-54
2023/10/03 09:17:03;;;;;;;15.32;4.68;;;;;;;19.97;69.07;101235.81;4997015;28;20041;-54
2023/10/03 09:19:44;;;;;;;21.55;4.65;;;;;;;20.00;69.08;101235.50;4997131;28;20163;-54
2023/10/03 09:22:10;;;;;;;22.67;5.75;;;;;;;19.99;68.94;101252.72;4992238;28;20476;-54
2023/10/03 09:24:43;;;;;;;12.50;4.07;;;;;;;19.99;69.04;101261.69;4994865;28;20104;-54
2023/10/03 09:27:11;;;;;;;18.67;4.93;;;;;;;20.01;69.16;101275.03;4995496;28;20382;-54
2023/10/03 09:29:36;;;;;;;22.75;4.28;;;;;;;20.01;68.29;101292.13;4993642;28;20377;-55
2023/10/03 09:32:17;;;;;;;17.23;4.20;;;;;;;20.01;69.09;101285.84;4996458;28;20034;-54
2023/10/03 09:34:44;;;;;;;14.52;3.60;;;;;;;20.01;68.93;101292.13;4991857;28;20026;-54
2023/10/03 09:37:10;;;;;;;14.45;3.38;;;;;;;20.02;68.93;101301.09;4995446;28;20057;-54
2023/10/03 09:39:47;;;;;;;18.10;4.43;;;;;;;20.01;69.35;101293.97;4997366;28;20550;-54
2023/10/03 09:42:17;;;;;;;15.25;4.53;;;;;;;20.01;69.02;101294.84;4994206;28;20038;-54
2023/10/03 09:44:57;;;;;;;14.70;3.95;;;;;;;20.02;69.48;101293.81;4996252;28;20212;-55
2023/10/03 09:47:29;;;;;;;15.60;3.40;;;;;;;20.00;69.55;101292.28;4993787;28;20038;-54
2023/10/03 09:50:04;;;;;;;9.00;3.10;;;;;;;20.01;69.42;101296.66;4996181;28;20034;-54
2023/10/03 09:52:30;;;;;;;17.58;3.67;;;;;;;20.01;69.49;101304.78;4993969;28;20354;-54
2023/10/03 09:55:17;;;;;;;13.30;3.22;;;;;;;20.01;69.36;101318.28;4996260;28;20042;-54
2023/10/03 09:57:45;;;;;;;9.77;3.13;;;;;;;20.00;69.25;101316.59;4994456;28;20365;-54
2023/10/03 10:00:23;;;;;;;10.05;3.00;;;;;;;19.99;69.17;101325.69;4996005;28;20034;-54
2023/10/03 10:02:55;;;;;;;8.13;2.60;;;;;;;19.99;68.69;101320.28;4995099;28;20049;-54
2023/10/03 10:05:23;;;;;;;10.25;2.70;;;;;;;19.99;69.33;101323.00;4994251;28;20081;-54
2023/10/03 10:08:20;;;;;;;13.43;2.88;;;;;;;19.99;68.76;101329.28;4993978;28;20117;-54
2023/10/03 10:11:10;;;;;;;8.55;2.50;;;;;;;20.00;69.06;101349.88;4991984;28;20488;-54
2023/10/03 10:13:44;;;;;;;7.57;2.83;;;;;;;19.99;68.86;101353.59;4994154;28;20030;-54
2023/10/03 10:18:45;;;;;;;11.52;2.42;;;;;;;20.01;68.97;101356.13;4996366;28;20114;-54
2023/10/03 10:21:26;;;;;;;9.45;2.35;;;;;;;20.01;68.87;101372.34;4996159;28;20046;-54
2023/10/03 10:24:15;;;;;;;7.15;2.45;;;;;;;20.01;68.87;101389.44;4996259;28;20084;-54
2023/10/03 10:26:42;;;;;;;7.72;2.10;;;;;;;19.98;68.67;101389.72;4996137;28;20050;-54
2023/10/03 10:29:09;;;;;;;7.03;2.25;;;;;;;19.98;68.50;101389.72;4995864;28;20033;-54
2023/10/03 10:31:44;;;;;;;5.28;2.08;;;;;;;19.98;68.30;101397.84;4996298;28;20125;-54
2023/10/03 10:34:21;;;;;;;4.95;2.30;;;;;;;19.98;68.66;101392.44;4995685;28;20085;-54
2023/10/03 10:37:01;;;;;;;8.00;2.13;;;;;;;19.98;68.44;101395.13;4995676;28;20121;-54
2023/10/03 10:39:56;;;;;;;4.93;2.03;;;;;;;20.00;68.67;101409.34;4993116;28;20092;-54
2023/10/03 10:42:25;;;;;;;3.78;1.70;;;;;;;19.96;68.12;101420.63;4993687;28;20129;-54
2023/10/03 10:45:13;;;;;;;6.38;1.90;;;;;;;19.98;68.58;101422.16;4995031;28;20038;-53
2023/10/03 10:47:50;;;;;;;9.00;2.28;;;;;;;19.96;68.03;101445.78;4994482;28;20034;-54
2023/10/03 10:50:21;;;;;;;4.10;1.65;;;;;;;19.95;68.13;101437.81;4994863;28;20031;-54
2023/10/03 10:52:52;;;;;;;5.78;1.67;;;;;;;19.93;67.95;101443.34;4994364;28;20026;-54
2023/10/03 10:55:17;;;;;;;6.10;1.70;;;;;;;19.94;68.05;101446.94;4994485;28;20040;-54
2023/10/03 10:57:43;;;;;;;3.83;1.90;;;;;;;19.92;68.42;101447.06;4995699;28;20277;-54
2023/10/03 11:00:22;;;;;;;2.55;1.60;;;;;;;19.91;68.33;101448.94;4995967;28;20125;-54
2023/10/03 11:02:48;;;;;;;4.97;1.52;;;;;;;19.92;68.04;101453.31;4993931;28;20469;-54
2023/10/03 11:05:13;;;;;;;2.83;1.48;;;;;;;19.93;68.12;101454.16;4995483;28;20044;-54
2023/10/03 11:07:49;;;;;;;3.40;1.50;;;;;;;19.94;68.63;101458.59;4995402;28;20101;-53
2023/10/03 11:10:15;;;;;;;3.42;1.30;;;;;;;19.94;68.47;101460.44;4995550;28;20045;-54
2023/10/03 11:12:41;;;;;;;4.47;1.42;;;;;;;19.93;67.96;101475.78;4995290;28;20030;-54
2023/10/03 11:15:12;;;;;;;2.95;1.35;;;;;;;19.92;68.46;101472.25;4995588;28;20044;-54
2023/10/03 11:17:38;;;;;;;;;;;;;;;20.03;68.06;101479.34;4990855;28;20042;-53
2023/10/03 11:20:08;;;;;;;3.75;1.50;;;;;;;19.95;68.69;101481.91;4993155;28;19969;-54
2023/10/03 11:22:37;;;;;;;2.00;1.20;;;;;;;19.94;68.19;101469.41;4993230;28;20026;-54
2023/10/03 11:25:08;;;;;;;2.42;1.38;;;;;;;19.93;68.77;101464.97;4993163;28;20504;-54
2023/10/03 11:27:34;;;;;;;4.35;1.40;;;;;;;19.95;68.25;101452.16;4994349;28;20035;-54
2023/10/03 11:30:13;;;;;;;1.23;1.13;;;;;;;19.97;67.99;101470.94;4993986;28;20041;-54
2023/10/03 11:32:38;;;;;;;2.95;1.15;;;;;;;19.95;68.60;101471.09;4993252;28;20439;-54
2023/10/03 11:35:21;;;;;;;2.78;1.30;;;;;;;19.97;68.18;101473.66;4991598;28;20170;-54